Time;durP1;ratioP1;P1;durP2;ratioP2;P2;SDS_P1;SDS_P2;PMS_P1;PMS_P2;Temp;Humidity;BMP_temperature;BMP_pressure;BME280_temperature;BME280_humidity;BME280_pressure;Samples;Min_cycle;Max_cycle;Signal;HPM_P1;HPM_P2
2021/11/15 00:01:43;;;;;;;18.70;15.07;;;7.80;99.90;;;;;;5063591;28;20185;-83
2021/11/15 00:04:10;;;;;;;18.67;14.57;;;7.80;99.90;;;;;;5061275;28;20342;-83
2021/11/15 00:06:36;;;;;;;20.23;13.77;;;7.80;99.90;;;;;;5065165;28;20241;-83
2021/11/15 00:09:02;;;;;;;19.07;12.60;;;7.80;99.90;;;;;;5060408;28;20254;-83
2021/11/15 00:11:29;;;;;;;20.33;13.77;;;7.70;99.90;;;;;;5062046;28;20205;-82
2021/11/15 00:13:55;;;;;;;21.17;13.60;;;7.80;99.90;;;;;;5060888;28;20201;-83
2021/11/15 00:16:21;;;;;;;18.30;13.67;;;7.70;99.90;;;;;;5063499;28;20237;-83
2021/11/15 00:18:46;;;;;;;20.70;13.83;;;7.70;99.90;;;;;;5063418;28;20227;-83
2021/11/15 00:21:12;;;;;;;17.07;12.77;;;7.70;99.90;;;;;;5055973;28;20181;-83
2021/11/15 00:23:38;;;;;;;20.07;13.70;;;7.70;99.90;;;;;;5057935;28;20207;-81
2021/11/15 00:26:04;;;;;;;17.43;12.83;;;7.70;99.90;;;;;;5065675;28;20210;-83
2021/11/15 00:28:30;;;;;;;17.27;13.20;;;7.70;99.90;;;;;;5049865;28;20216;-83
2021/11/15 00:30:55;;;;;;;19.63;14.63;;;7.70;99.90;;;;;;5057570;28;20184;-83
2021/11/15 00:33:21;;;;;;;25.07;16.70;;;7.70;99.90;;;;;;5055701;28;20209;-83
2021/11/15 00:35:47;;;;;;;18.63;13.77;;;7.60;99.90;;;;;;5054934;28;20206;-83
2021/11/15 00:38:16;;;;;;;20.63;14.30;;;7.60;99.90;;;;;;5062608;28;20188;-84
2021/11/15 00:40:42;;;;;;;21.73;13.77;;;7.60;99.90;;;;;;5064048;28;20217;-83
2021/11/15 00:43:07;;;;;;;18.73;13.37;;;7.60;99.90;;;;;;5062788;28;20266;-83
2021/11/15 00:45:34;;;;;;;28.03;17.50;;;7.60;99.90;;;;;;5063704;28;20268;-83
2021/11/15 00:48:00;;;;;;;29.37;19.93;;;7.60;99.90;;;;;;5062951;28;20204;-83
2021/11/15 00:50:26;;;;;;;28.03;18.33;;;7.60;99.90;;;;;;5055123;28;20217;-83
2021/11/15 00:52:52;;;;;;;23.80;15.57;;;7.60;99.90;;;;;;5055034;28;20226;-83
2021/11/15 00:55:19;;;;;;;21.47;15.17;;;7.60;99.90;;;;;;5062751;28;20232;-84
2021/11/15 00:57:46;;;;;;;20.10;14.43;;;7.60;99.90;;;;;;5063349;28;20209;-83
2021/11/15 01:00:16;;;;;;;19.53;13.63;;;7.50;99.90;;;;;;5065521;28;20189;-84
2021/11/15 01:02:42;;;;;;;22.00;14.40;;;7.50;99.90;;;;;;5064128;28;20608;-83
2021/11/15 01:05:09;;;;;;;17.60;13.33;;;7.50;99.90;;;;;;5063572;28;20186;-82
2021/11/15 01:07:35;;;;;;;21.07;14.27;;;7.50;99.90;;;;;;5064248;28;20273;-83
2021/11/15 01:10:02;;;;;;;21.87;13.53;;;7.50;99.90;;;;;;5051508;28;20233;-83
2021/11/15 01:12:28;;;;;;;20.50;13.70;;;7.50;99.90;;;;;;5052910;28;20218;-83
2021/11/15 01:14:54;;;;;;;22.87;14.53;;;7.40;99.90;;;;;;5065836;28;20256;-83
2021/11/15 01:17:20;;;;;;;19.00;14.10;;;7.40;99.90;;;;;;5064659;28;20608;-83
2021/11/15 01:19:46;;;;;;;19.87;13.53;;;7.50;99.90;;;;;;5065674;28;20253;-83
2021/11/15 01:22:11;;;;;;;21.80;13.20;;;7.40;99.90;;;;;;5064732;28;20186;-83
2021/11/15 01:24:37;;;;;;;21.63;14.27;;;7.50;99.90;;;;;;5057097;28;20205;-83
2021/11/15 01:27:03;;;;;;;23.43;14.30;;;7.40;99.90;;;;;;5059551;28;20188;-83
2021/11/15 01:29:29;;;;;;;20.93;13.73;;;7.40;99.90;;;;;;5048873;28;20183;-83
2021/11/15 01:31:59;;;;;;;20.20;13.83;;;7.40;99.90;;;;;;5065514;28;20193;-83
2021/11/15 01:34:26;;;;;;;24.23;14.23;;;7.30;99.90;;;;;;5082908;22;20225;-81
2021/11/15 01:36:52;;;;;;;21.00;13.70;;;7.30;99.90;;;;;;5000643;28;20194;-81
2021/11/15 01:39:18;;;;;;;22.43;12.93;;;7.30;99.90;;;;;;5016475;28;20186;-81
2021/11/15 01:41:43;;;;;;;18.30;13.20;;;7.30;99.90;;;;;;5034284;28;20178;-82
2021/11/15 01:44:09;;;;;;;19.43;13.33;;;7.30;99.90;;;;;;5033936;28;20197;-82
2021/11/15 01:46:35;;;;;;;16.63;12.40;;;7.30;99.90;;;;;;5023055;28;20626;-81
2021/11/15 01:49:00;;;;;;;19.60;13.03;;;7.40;99.90;;;;;;4995199;28;20179;-82
2021/11/15 01:51:26;;;;;;;18.73;13.03;;;7.30;99.90;;;;;;5001354;28;20579;-82
2021/11/15 01:53:52;;;;;;;21.03;13.53;;;7.30;99.90;;;;;;5022871;28;20174;-81
2021/11/15 01:56:18;;;;;;;21.83;14.23;;;7.30;99.90;;;;;;5022272;28;20198;-81
2021/11/15 01:58:44;;;;;;;23.13;13.33;;;7.30;99.90;;;;;;5004317;28;20179;-83
2021/11/15 02:01:10;;;;;;;17.13;12.67;;;7.30;99.90;;;;;;5001048;28;20198;-81
2021/11/15 02:03:36;;;;;;;21.53;13.63;;;7.30;99.90;;;;;;5005049;28;20179;-81
2021/11/15 02:06:03;;;;;;;19.90;13.77;;;7.30;99.90;;;;;;5004105;28;20551;-81
2021/11/15 02:08:29;;;;;;;19.07;13.20;;;7.60;99.90;;;;;;5003662;28;20183;-80
2021/11/15 02:10:55;;;;;;;16.37;11.80;;;7.30;99.90;;;;;;5020764;28;20183;-81
2021/11/15 02:13:21;;;;;;;18.60;12.23;;;7.20;99.90;;;;;;5022941;28;20173;-82
2021/11/15 02:15:51;;;;;;;17.27;11.67;;;7.20;99.90;;;;;;5003980;28;20202;-82
2021/11/15 02:18:18;;;;;;;20.90;12.67;;;7.20;99.90;;;;;;5005914;28;20208;-80
2021/11/15 02:20:54;;;;;;;18.53;12.50;;;7.20;99.90;;;;;;5021889;28;20181;-81
2021/11/15 02:23:22;;;;;;;20.57;11.90;;;7.20;99.90;;;;;;5021352;28;20179;-81
2021/11/15 02:25:51;;;;;;;18.00;12.30;;;7.20;99.90;;;;;;5019998;28;20194;-81
2021/11/15 02:28:17;;;;;;;19.07;12.97;;;7.20;99.90;;;;;;5020633;28;20182;-81
2021/11/15 02:30:43;;;;;;;20.10;13.20;;;7.50;99.90;;;;;;5021102;28;20171;-81
2021/11/15 02:33:10;;;;;;;19.33;12.40;;;7.20;99.90;;;;;;5020460;28;20272;-82
2021/11/15 02:35:37;;;;;;;19.83;12.57;;;7.10;99.90;;;;;;5003320;28;20268;-81
2021/11/15 02:38:04;;;;;;;17.90;12.57;;;7.20;99.90;;;;;;4991533;28;20184;-81
2021/11/15 02:40:29;;;;;;;16.47;11.70;;;7.00;99.90;;;;;;5020261;28;20186;-81
2021/11/15 02:42:57;;;;;;;17.97;11.53;;;7.10;99.90;;;;;;5021937;28;20186;-80
2021/11/15 02:45:25;;;;;;;17.33;11.40;;;7.00;99.90;;;;;;5020737;28;20204;-81
2021/11/15 02:47:52;;;;;;;16.63;11.30;;;7.10;99.90;;;;;;5020455;28;20182;-82
2021/11/15 02:50:20;;;;;;;15.33;11.43;;;7.00;99.90;;;;;;5003613;28;20173;-81
2021/11/15 02:52:52;;;;;;;13.97;10.73;;;7.00;99.90;;;;;;5002980;28;20197;-81
2021/11/15 02:55:18;;;;;;;15.73;11.20;;;7.00;99.90;;;;;;5021237;28;20200;-82
2021/11/15 02:57:44;;;;;;;14.80;10.67;;;7.00;99.90;;;;;;5004310;28;20174;-80
2021/11/15 03:00:21;;;;;;;17.37;12.10;;;7.00;99.90;;;;;;5021175;28;20178;-81
2021/11/15 03:02:47;;;;;;;18.47;12.47;;;6.80;99.90;;;;;;5022305;28;20198;-82
2021/11/15 03:05:13;;;;;;;15.00;11.27;;;7.00;99.90;;;;;;4991974;28;20199;-82
2021/11/15 03:07:43;;;;;;;18.20;12.30;;;6.90;99.90;;;;;;5006983;28;20209;-82
2021/11/15 03:10:08;;;;;;;16.07;11.30;;;6.90;99.90;;;;;;5011331;28;20185;-83
2021/11/15 03:12:34;;;;;;;18.87;11.90;;;7.00;99.90;;;;;;5000463;28;20228;-81
2021/11/15 03:15:00;;;;;;;15.73;11.27;;;6.90;99.90;;;;;;5019443;28;20198;-81
2021/11/15 03:17:26;;;;;;;30.17;17.77;;;7.10;99.90;;;;;;5019912;28;20170;-81
2021/11/15 03:19:52;;;;;;;24.07;15.23;;;6.90;99.90;;;;;;5020022;28;20185;-81
2021/11/15 03:22:17;;;;;;;14.50;10.30;;;6.90;99.90;;;;;;5010815;28;20591;-79
2021/11/15 03:24:45;;;;;;;15.80;11.80;;;6.90;99.90;;;;;;5020520;28;20565;-81
2021/11/15 03:27:11;;;;;;;14.33;10.03;;;6.80;99.90;;;;;;5021369;28;20199;-81
2021/11/15 03:29:36;;;;;;;18.53;13.00;;;6.80;99.90;;;;;;5007055;28;20177;-80
2021/11/15 03:32:02;;;;;;;62.93;31.60;;;6.80;99.90;;;;;;4985183;28;20239;-81
2021/11/15 03:34:28;;;;;;;47.53;27.67;;;6.80;99.90;;;;;;5021042;28;20243;-81
2021/11/15 03:36:54;;;;;;;25.57;15.80;;;6.80;99.90;;;;;;4992734;28;20174;-81
2021/11/15 03:39:19;;;;;;;14.93;10.83;;;6.80;99.90;;;;;;5003184;28;20182;-81
2021/11/15 03:41:45;;;;;;;19.03;11.70;;;6.70;99.90;;;;;;5002063;28;20249;-82
2021/11/15 03:44:12;;;;;;;11.83;9.20;;;6.70;99.90;;;;;;5020679;28;20180;-82
2021/11/15 03:46:39;;;;;;;10.80;8.93;;;6.70;99.90;;;;;;5019685;28;20553;-81
2021/11/15 03:49:06;;;;;;;14.83;9.40;;;6.60;99.90;;;;;;5017705;28;20236;-82
2021/11/15 03:51:33;;;;;;;24.70;14.73;;;6.60;99.90;;;;;;5001888;28;20199;-81
2021/11/15 03:53:58;;;;;;;55.13;28.10;;;6.70;99.90;;;;;;5019157;28;20189;-82
2021/11/15 03:56:27;;;;;;;14.87;10.63;;;6.60;99.90;;;;;;5019738;28;20324;-80
2021/11/15 03:58:54;;;;;;;16.60;11.40;;;6.60;99.90;;;;;;5019633;28;20177;-81
2021/11/15 04:01:24;;;;;;;15.60;10.83;;;6.60;99.90;;;;;;5021538;28;20184;-80
2021/11/15 04:03:51;;;;;;;19.43;11.80;;;6.60;99.90;;;;;;5002496;28;20233;-81
2021/11/15 04:06:24;;;;;;;18.87;12.83;;;6.50;99.90;;;;;;5016706;28;20213;-79
2021/11/15 04:08:58;;;;;;;19.43;12.73;;;6.80;99.90;;;;;;5000386;28;20190;-81
2021/11/15 04:11:27;;;;;;;19.33;12.80;;;6.40;99.90;;;;;;5018959;28;20203;-80
2021/11/15 04:13:56;;;;;;;23.67;13.90;;;6.40;99.90;;;;;;5020907;28;20179;-81
2021/11/15 04:16:22;;;;;;;24.53;15.30;;;6.50;99.90;;;;;;5020192;28;20254;-82
2021/11/15 04:18:57;;;;;;;26.23;15.67;;;6.40;99.90;;;;;;5021933;28;20214;-81
2021/11/15 04:21:25;;;;;;;26.87;16.13;;;6.30;99.90;;;;;;5023373;28;20656;-81
2021/11/15 04:23:51;;;;;;;26.70;16.70;;;6.70;99.90;;;;;;5016737;28;20205;-81
2021/11/15 04:26:17;;;;;;;28.30;16.67;;;6.40;99.90;;;;;;4998838;28;20207;-81
2021/11/15 04:28:43;;;;;;;25.43;16.47;;;6.30;99.90;;;;;;5019625;28;20182;-83
2021/11/15 04:31:09;;;;;;;25.37;16.97;;;6.30;99.90;;;;;;4995095;28;20198;-82
2021/11/15 04:33:39;;;;;;;30.03;18.17;;;6.40;99.90;;;;;;5002318;28;20644;-81
2021/11/15 04:36:05;;;;;;;30.13;19.30;;;6.30;99.90;;;;;;4975157;28;20221;-81
2021/11/15 04:38:31;;;;;;;28.67;18.27;;;6.30;99.90;;;;;;5017170;28;20195;-81
2021/11/15 04:40:58;;;;;;;30.83;18.23;;;6.30;99.90;;;;;;5020667;28;20177;-82
2021/11/15 04:43:23;;;;;;;29.07;18.10;;;6.20;99.90;;;;;;5020907;28;20180;-82
2021/11/15 04:45:49;;;;;;;29.57;17.83;;;6.60;99.90;;;;;;5021619;28;20226;-81
2021/11/15 04:48:15;;;;;;;25.87;16.47;;;6.20;99.90;;;;;;5003436;28;20189;-80
2021/11/15 04:50:41;;;;;;;23.50;15.10;;;6.40;99.90;;;;;;5019976;28;20182;-81
2021/11/15 04:53:07;;;;;;;26.10;15.37;;;6.20;99.90;;;;;;5022289;28;20224;-82
2021/11/15 04:55:34;;;;;;;26.90;16.40;;;6.20;99.90;;;;;;5017065;28;20222;-82
2021/11/15 04:58:00;;;;;;;25.30;14.93;;;6.70;99.90;;;;;;4983332;28;20329;-82
2021/11/15 05:00:28;;;;;;;23.17;14.80;;;6.30;99.90;;;;;;4979652;28;20271;-81
2021/11/15 05:02:54;;;;;;;22.90;14.10;;;6.50;99.90;;;;;;4977524;28;20191;-80
2021/11/15 05:05:21;;;;;;;23.53;13.93;;;6.30;99.90;;;;;;4980279;28;20195;-81
2021/11/15 05:07:48;;;;;;;18.80;12.67;;;6.30;99.90;;;;;;4994718;28;20230;-81
2021/11/15 05:10:14;;;;;;;20.47;13.10;;;6.30;99.90;;;;;;4963900;28;20189;-80
2021/11/15 05:12:41;;;;;;;18.63;12.17;;;6.30;99.90;;;;;;4981928;28;20207;-82
2021/11/15 05:15:13;;;;;;;14.77;11.20;;;6.20;99.90;;;;;;4948345;28;20199;-82
2021/11/15 05:17:39;;;;;;;14.13;10.13;;;6.30;99.90;;;;;;4995586;28;20180;-82
2021/11/15 05:20:08;;;;;;;14.00;10.23;;;6.20;99.90;;;;;;5000388;28;20254;-81
2021/11/15 05:22:34;;;;;;;16.57;9.97;;;6.30;99.90;;;;;;4996305;28;20191;-84
2021/11/15 05:25:00;;;;;;;13.30;9.67;;;6.30;99.90;;;;;;5003207;28;20251;-82
2021/11/15 05:27:26;;;;;;;12.63;9.80;;;6.30;99.90;;;;;;4979146;28;20179;-80
2021/11/15 05:29:51;;;;;;;12.87;9.33;;;6.30;99.90;;;;;;4998684;28;20184;-80
2021/11/15 05:32:19;;;;;;;10.93;8.40;;;6.30;99.90;;;;;;4993398;28;20199;-83
2021/11/15 05:34:44;;;;;;;12.43;9.23;;;6.30;99.90;;;;;;5000151;28;20681;-81
2021/11/15 05:37:11;;;;;;;10.03;7.63;;;6.30;99.90;;;;;;4993391;28;20191;-83
2021/11/15 05:39:36;;;;;;;11.83;7.70;;;6.30;99.90;;;;;;5003281;28;20175;-81
2021/11/15 05:42:02;;;;;;;11.13;8.40;;;6.30;99.90;;;;;;4982083;28;20183;-81
2021/11/15 05:44:28;;;;;;;9.10;7.27;;;6.30;99.90;;;;;;4998163;28;20183;-81
2021/11/15 05:46:54;;;;;;;9.33;7.73;;;6.30;99.90;;;;;;5022621;28;20237;-81
2021/11/15 05:49:20;;;;;;;9.73;7.50;;;6.30;99.90;;;;;;5023398;28;20222;-83
2021/11/15 05:51:46;;;;;;;10.50;7.47;;;6.30;99.90;;;;;;4989424;28;20209;-81
2021/11/15 05:54:11;;;;;;;9.20;7.20;;;6.20;99.90;;;;;;5026049;28;20175;-81
2021/11/15 05:56:37;;;;;;;7.83;6.80;;;6.20;99.90;;;;;;5016461;28;20170;-81
2021/11/15 05:59:03;;;;;;;9.97;7.30;;;6.20;99.90;;;;;;5021518;28;20198;-83
2021/11/15 06:01:29;;;;;;;8.20;7.07;;;6.20;99.90;;;;;;5023918;28;20683;-81
2021/11/15 06:03:55;;;;;;;7.90;6.90;;;6.50;99.90;;;;;;5018482;28;20257;-83
2021/11/15 06:06:21;;;;;;;7.70;6.40;;;6.40;99.90;;;;;;5031709;28;20221;-82
2021/11/15 06:08:47;;;;;;;8.63;6.93;;;6.30;99.90;;;;;;5034276;28;20182;-82
2021/11/15 06:11:13;;;;;;;9.73;6.77;;;6.20;99.90;;;;;;5015828;28;20633;-81
2021/11/15 06:13:38;;;;;;;8.90;7.37;;;6.20;99.90;;;;;;5024292;28;20211;-84
2021/11/15 06:16:04;;;;;;;7.77;6.83;;;6.30;99.90;;;;;;5004094;28;20199;-83
2021/11/15 06:18:30;;;;;;;8.87;6.73;;;6.30;99.90;;;;;;4997775;28;20178;-82
2021/11/15 06:20:56;;;;;;;8.87;7.10;;;6.30;99.90;;;;;;5000957;28;20179;-84
2021/11/15 06:23:22;;;;;;;8.23;6.70;;;6.70;99.90;;;;;;5020852;28;20247;-83
2021/11/15 06:25:47;;;;;;;9.77;6.33;;;6.20;99.90;;;;;;5013949;28;20230;-83
2021/11/15 06:28:13;;;;;;;8.70;7.80;;;6.20;99.90;;;;;;5020247;28;20648;-82
2021/11/15 06:30:39;;;;;;;8.87;7.57;;;6.40;99.90;;;;;;5023337;28;20536;-83
2021/11/15 06:33:04;;;;;;;9.83;7.57;;;6.20;99.90;;;;;;4997344;28;20206;-83
2021/11/15 06:35:30;;;;;;;10.90;7.77;;;6.20;99.90;;;;;;5005849;28;20256;-83
2021/11/15 06:37:57;;;;;;;10.20;7.60;;;6.20;99.90;;;;;;4997851;28;20177;-82
2021/11/15 06:40:23;;;;;;;11.30;7.90;;;6.20;99.90;;;;;;4997872;28;20259;-82
2021/11/15 06:42:50;;;;;;;10.97;8.43;;;6.20;99.90;;;;;;5005943;28;20210;-82
2021/11/15 06:45:17;;;;;;;11.50;8.93;;;6.20;99.90;;;;;;5023193;28;20195;-83
2021/11/15 06:47:43;;;;;;;11.13;9.87;;;6.20;99.90;;;;;;5022274;28;20188;-81
2021/11/15 06:50:12;;;;;;;12.43;10.73;;;6.20;99.90;;;;;;5004260;28;20189;-80
2021/11/15 06:52:38;;;;;;;24.37;15.43;;;6.10;99.90;;;;;;4998149;28;20200;-82
2021/11/15 06:55:05;;;;;;;38.63;21.80;;;6.10;99.90;;;;;;5008848;28;20206;-82
2021/11/15 06:57:34;;;;;;;16.17;11.47;;;6.10;99.90;;;;;;5007484;28;20593;-83
2021/11/15 07:00:00;;;;;;;17.00;12.07;;;6.10;99.90;;;;;;4994487;28;20183;-80
2021/11/15 07:02:25;;;;;;;18.13;11.43;;;6.10;99.90;;;;;;4999069;28;20237;-81
2021/11/15 07:04:51;;;;;;;20.90;13.13;;;6.10;99.90;;;;;;5021639;28;20217;-80
2021/11/15 07:07:23;;;;;;;23.10;14.00;;;6.10;99.90;;;;;;5012312;28;20190;-79
2021/11/15 07:09:49;;;;;;;32.37;19.20;;;6.10;99.90;;;;;;5019602;28;20183;-81
2021/11/15 07:12:15;;;;;;;17.63;12.67;;;6.10;99.90;;;;;;5000369;28;20215;-81
2021/11/15 07:14:41;;;;;;;27.93;16.93;;;6.10;99.90;;;;;;4977898;28;20199;-80
2021/11/15 07:17:07;;;;;;;18.40;12.90;;;6.10;99.90;;;;;;5020445;28;20253;-80
2021/11/15 07:19:32;;;;;;;18.23;11.63;;;6.10;99.90;;;;;;5021152;28;20190;-81
2021/11/15 07:21:58;;;;;;;18.50;11.90;;;6.10;99.90;;;;;;5021307;28;20186;-79
2021/11/15 07:24:24;;;;;;;28.93;16.47;;;6.10;99.90;;;;;;5003225;28;20214;-81
2021/11/15 07:26:50;;;;;;;18.33;12.00;;;6.10;99.90;;;;;;4995316;28;20606;-82
2021/11/15 07:29:18;;;;;;;62.03;26.03;;;6.40;99.90;;;;;;5010653;28;20185;-81
2021/11/15 07:31:44;;;;;;;37.23;18.00;;;6.10;99.90;;;;;;5010147;28;20244;-80
2021/11/15 07:34:10;;;;;;;139.03;42.60;;;6.00;99.90;;;;;;5010951;28;20210;-81
2021/11/15 07:36:36;;;;;;;75.90;28.97;;;6.10;99.90;;;;;;5002134;28;20215;-82
2021/11/15 07:39:04;;;;;;;282.40;69.03;;;6.20;99.90;;;;;;5020281;28;20213;-81
2021/11/15 07:41:29;;;;;;;48.23;20.17;;;6.10;99.90;;;;;;5020750;28;20189;-80
2021/11/15 07:43:55;;;;;;;43.07;19.30;;;6.10;99.90;;;;;;5020069;28;20550;-81
2021/11/15 07:46:21;;;;;;;21.40;13.63;;;6.10;99.90;;;;;;5012093;28;20223;-79
2021/11/15 07:48:47;;;;;;;45.93;26.17;;;6.20;99.90;;;;;;5020761;28;20240;-81
2021/11/15 07:51:16;;;;;;;17.53;11.90;;;6.20;99.90;;;;;;4995018;28;20196;-81
2021/11/15 07:53:42;;;;;;;22.87;15.80;;;6.10;99.90;;;;;;4984251;28;20178;-80
2021/11/15 07:56:10;;;;;;;18.70;11.87;;;6.10;99.90;;;;;;4995580;28;20205;-81
2021/11/15 07:58:36;;;;;;;15.90;12.57;;;6.10;99.90;;;;;;4994544;28;20178;-80
2021/11/15 08:01:03;;;;;;;17.07;13.30;;;6.00;99.90;;;;;;4988721;28;20346;-81
2021/11/15 08:03:28;;;;;;;16.87;12.03;;;6.00;99.90;;;;;;4981529;28;20186;-80
2021/11/15 08:05:54;;;;;;;16.70;12.77;;;6.00;99.90;;;;;;5016623;28;20213;-81
2021/11/15 08:08:23;;;;;;;18.00;13.00;;;6.00;99.90;;;;;;5019143;28;20179;-81
2021/11/15 08:10:50;;;;;;;18.03;13.67;;;6.00;99.90;;;;;;5005220;28;20190;-80
2021/11/15 08:13:16;;;;;;;25.50;16.27;;;6.00;99.90;;;;;;5021550;28;20214;-80
2021/11/15 08:15:41;;;;;;;38.57;21.57;;;6.00;99.90;;;;;;5021057;28;20201;-81
2021/11/15 08:18:07;;;;;;;26.60;15.67;;;6.10;99.90;;;;;;4999090;28;20183;-81
2021/11/15 08:20:36;;;;;;;20.30;14.77;;;6.10;99.90;;;;;;5012836;28;20186;-81
2021/11/15 08:23:09;;;;;;;19.07;13.80;;;6.10;99.90;;;;;;5019636;28;20274;-81
2021/11/15 08:25:59;;;;;;;24.47;18.00;;;6.10;99.90;;;;;;4987320;28;20205;-81
2021/11/15 08:28:27;;;;;;;23.80;16.33;;;6.00;99.90;;;;;;5020230;28;20186;-80
2021/11/15 08:30:54;;;;;;;24.17;15.80;;;6.10;99.90;;;;;;5019687;28;20186;-82
2021/11/15 08:33:20;;;;;;;19.30;14.70;;;6.10;99.90;;;;;;5019992;28;20204;-80
2021/11/15 08:35:48;;;;;;;19.50;14.13;;;6.50;99.90;;;;;;5018946;28;20230;-79
2021/11/15 08:38:21;;;;;;;22.10;14.20;;;6.20;99.90;;;;;;5020290;28;20176;-80
2021/11/15 08:40:50;;;;;;;21.07;15.03;;;6.20;99.90;;;;;;5019392;28;20183;-81
2021/11/15 08:43:21;;;;;;;23.50;16.07;;;6.10;99.90;;;;;;5020026;28;20182;-82
2021/11/15 08:45:48;;;;;;;22.00;14.37;;;6.20;99.90;;;;;;5001731;28;20307;-80
2021/11/15 08:48:15;;;;;;;16.60;11.43;;;6.20;99.90;;;;;;5019731;28;20588;-80
2021/11/15 08:50:41;;;;;;;18.27;12.13;;;6.20;99.90;;;;;;5019618;28;20190;-80
2021/11/15 08:53:09;;;;;;;19.13;12.87;;;6.10;99.90;;;;;;5001404;28;20316;-81
2021/11/15 08:55:35;;;;;;;18.93;12.10;;;6.10;99.90;;;;;;5019119;28;20203;-81
2021/11/15 08:58:02;;;;;;;16.30;11.20;;;6.10;99.90;;;;;;5018957;28;20237;-81
2021/11/15 09:00:28;;;;;;;17.00;11.37;;;6.10;99.90;;;;;;5018815;28;20658;-81
2021/11/15 09:02:55;;;;;;;17.00;11.73;;;6.00;99.90;;;;;;5020146;28;20179;-81
2021/11/15 09:05:21;;;;;;;17.03;11.50;;;6.10;99.90;;;;;;5000942;28;20206;-81
2021/11/15 09:07:47;;;;;;;18.27;12.07;;;6.10;99.90;;;;;;5018324;28;20191;-80
2021/11/15 09:10:15;;;;;;;19.40;12.53;;;6.10;99.90;;;;;;5007528;28;20545;-81
2021/11/15 09:12:42;;;;;;;16.27;11.53;;;6.10;99.90;;;;;;5017280;28;20298;-81
2021/11/15 09:15:11;;;;;;;20.40;11.30;;;6.10;99.90;;;;;;5020042;28;20198;-81
2021/11/15 09:17:39;;;;;;;17.40;10.90;;;6.20;99.90;;;;;;5019879;28;20187;-81
2021/11/15 09:20:07;;;;;;;16.67;11.40;;;6.20;99.90;;;;;;5019271;28;20218;-80
2021/11/15 09:22:33;;;;;;;14.47;10.33;;;6.20;99.90;;;;;;5022404;28;20680;-80
2021/11/15 09:24:59;;;;;;;17.30;11.67;;;6.20;99.90;;;;;;5006583;28;20201;-80
2021/11/15 09:27:26;;;;;;;19.90;11.87;;;6.10;99.90;;;;;;5022946;28;20589;-80
2021/11/15 09:29:54;;;;;;;13.27;10.27;;;6.10;99.90;;;;;;5023193;28;20189;-80
2021/11/15 09:32:20;;;;;;;19.47;11.97;;;6.10;99.90;;;;;;5018602;28;20202;-80
2021/11/15 09:34:47;;;;;;;17.57;11.40;;;6.10;99.90;;;;;;5023190;28;20210;-80
2021/11/15 09:37:14;;;;;;;17.37;11.33;;;6.00;99.90;;;;;;5024710;28;20262;-80
2021/11/15 09:39:43;;;;;;;17.73;11.13;;;6.30;99.90;;;;;;5005734;28;20182;-80
2021/11/15 09:42:10;;;;;;;17.47;12.07;;;6.10;99.90;;;;;;5021314;28;20659;-80
2021/11/15 09:44:36;;;;;;;20.90;11.90;;;6.30;99.90;;;;;;5003504;28;20212;-80
2021/11/15 09:47:03;;;;;;;17.03;11.43;;;6.20;99.90;;;;;;5021050;28;20445;-80
2021/11/15 09:49:30;;;;;;;15.73;10.70;;;6.20;99.90;;;;;;5021086;28;20273;-81
2021/11/15 09:51:56;;;;;;;18.37;11.80;;;6.20;99.90;;;;;;5020880;28;20317;-81
2021/11/15 09:54:22;;;;;;;17.83;11.97;;;6.10;99.90;;;;;;5020368;28;20331;-80
2021/11/15 09:56:50;;;;;;;17.03;11.83;;;6.20;99.90;;;;;;5020477;28;20178;-80
2021/11/15 09:59:16;;;;;;;19.37;12.57;;;6.20;99.90;;;;;;5002536;28;20182;-80
2021/11/15 10:01:45;;;;;;;19.83;13.13;;;6.20;99.90;;;;;;5002936;28;20272;-81
2021/11/15 10:04:13;;;;;;;17.77;12.60;;;6.20;99.90;;;;;;5002636;28;20195;-80
2021/11/15 10:06:41;;;;;;;19.20;12.53;;;6.20;99.90;;;;;;4981707;28;20188;-80
2021/11/15 10:09:07;;;;;;;19.43;13.07;;;6.20;99.90;;;;;;5014907;28;20217;-81
2021/11/15 10:11:46;;;;;;;17.40;12.63;;;6.30;99.90;;;;;;5020712;28;20680;-80
2021/11/15 10:14:13;;;;;;;19.00;12.40;;;6.20;99.90;;;;;;5019491;28;20185;-80
2021/11/15 10:16:39;;;;;;;16.23;10.93;;;6.20;99.90;;;;;;5020236;28;20181;-80
2021/11/15 10:19:12;;;;;;;16.30;11.30;;;6.20;99.90;;;;;;5011812;28;20654;-81
2021/11/15 10:21:49;;;;;;;21.23;12.30;;;6.30;99.90;;;;;;5008655;28;20649;-81
2021/11/15 10:24:17;;;;;;;19.90;13.43;;;6.20;99.90;;;;;;4993562;28;20214;-80
2021/11/15 10:26:47;;;;;;;20.10;14.80;;;6.30;99.90;;;;;;5019798;28;20213;-80
2021/11/15 10:29:43;;;;;;;27.00;14.47;;;6.30;99.90;;;;;;5008821;28;20180;-80
2021/11/15 10:32:13;;;;;;;24.00;15.13;;;6.30;99.90;;;;;;5020350;28;20221;-81
2021/11/15 10:34:43;;;;;;;20.50;14.40;;;6.30;99.90;;;;;;4989781;28;20306;-81
2021/11/15 10:37:20;;;;;;;19.10;12.80;;;6.30;99.90;;;;;;5017429;28;20185;-80
2021/11/15 10:39:56;;;;;;;20.13;13.43;;;6.30;99.90;;;;;;5019418;28;20182;-80
2021/11/15 10:42:30;;;;;;;23.10;11.97;;;6.40;99.90;;;;;;5020184;28;20183;-80
2021/11/15 10:45:11;;;;;;;16.37;10.93;;;6.30;99.90;;;;;;4998414;28;20214;-81
2021/11/15 10:47:51;;;;;;;17.43;11.70;;;6.30;99.90;;;;;;4991438;28;20211;-79
2021/11/15 10:50:22;;;;;;;18.17;11.77;;;6.20;99.90;;;;;;5011235;28;20189;-80
2021/11/15 10:53:09;;;;;;;16.97;12.07;;;6.20;99.90;;;;;;5019261;28;20228;-80
2021/11/15 10:55:45;;;;;;;14.57;10.33;;;6.30;99.90;;;;;;5016648;28;20195;-80
2021/11/15 10:58:18;;;;;;;13.70;9.83;;;6.50;99.90;;;;;;4992955;28;20178;-80
2021/11/15 11:00:54;;;;;;;20.93;13.97;;;6.40;99.90;;;;;;5017495;28;20188;-80
2021/11/15 11:03:25;;;;;;;14.63;10.80;;;6.40;99.90;;;;;;5011069;28;20178;-80
2021/11/15 11:05:54;;;;;;;19.73;14.17;;;6.40;99.90;;;;;;5001732;28;20199;-80
2021/11/15 11:08:26;;;;;;;16.07;11.77;;;6.40;99.90;;;;;;5018606;28;20651;-80
2021/11/15 11:11:01;;;;;;;36.97;20.90;;;6.30;99.90;;;;;;4987940;28;20448;-81
2021/11/15 11:13:50;;;;;;;156.87;61.27;;;6.30;99.90;;;;;;5018260;28;20201;-80
2021/11/15 11:16:18;;;;;;;26.40;15.83;;;6.30;99.90;;;;;;5018693;28;20232;-80
2021/11/15 11:19:03;;;;;;;55.33;25.50;;;6.30;99.90;;;;;;5018520;28;20177;-80
2021/11/15 11:26:32;;;;;;;15.37;10.07;;;6.40;99.90;;;;;;5018213;28;20209;-80
2021/11/15 11:29:02;;;;;;;25.27;13.80;;;6.60;99.90;;;;;;5018719;28;20205;-80
2021/11/15 11:31:34;;;;;;;18.37;12.53;;;6.50;99.90;;;;;;5018649;28;20178;-80
2021/11/15 11:34:00;;;;;;;15.27;10.63;;;6.50;99.90;;;;;;5003388;28;20670;-80
2021/11/15 11:36:26;;;;;;;27.63;14.60;;;6.40;99.90;;;;;;5015915;28;20218;-81
2021/11/15 11:38:53;;;;;;;52.63;22.47;;;6.40;99.90;;;;;;5000957;28;20180;-80
2021/11/15 11:41:20;;;;;;;26.87;14.30;;;6.40;99.90;;;;;;4996190;28;20179;-79
2021/11/15 11:43:47;;;;;;;16.37;10.60;;;6.40;99.90;;;;;;5014248;28;20660;-80
2021/11/15 11:46:20;;;;;;;16.03;11.07;;;6.50;99.90;;;;;;5018117;28;20196;-80
2021/11/15 11:48:53;;;;;;;16.00;10.63;;;6.50;99.90;;;;;;5018127;28;20210;-81
2021/11/15 11:51:22;;;;;;;14.60;10.10;;;6.40;99.90;;;;;;5008684;28;20193;-80
2021/11/15 11:54:08;;;;;;;16.73;9.93;;;6.30;99.90;;;;;;4989744;28;20171;-81
2021/11/15 11:56:34;;;;;;;20.10;12.80;;;6.40;99.90;;;;;;4991200;28;20219;-80
2021/11/15 11:59:11;;;;;;;15.87;10.90;;;6.40;99.90;;;;;;4992619;28;20705;-80
2021/11/15 12:01:37;;;;;;;18.73;9.87;;;6.40;99.90;;;;;;4987691;28;20250;-80
2021/11/15 12:04:17;;;;;;;18.77;11.80;;;6.40;99.90;;;;;;4992000;28;20187;-80
2021/11/15 12:06:44;;;;;;;24.33;15.30;;;6.30;99.90;;;;;;4986734;28;20200;-81
2021/11/15 12:09:10;;;;;;;17.27;10.63;;;6.40;99.90;;;;;;4988579;28;20189;-79
2021/11/15 12:11:43;;;;;;;19.70;11.37;;;6.40;99.90;;;;;;4971053;28;20215;-80
2021/11/15 12:14:10;;;;;;;35.63;19.67;;;6.40;99.90;;;;;;4992012;28;20564;-80
2021/11/15 12:16:57;;;;;;;20.93;11.90;;;6.40;99.90;;;;;;4984748;28;20204;-80
2021/11/15 12:19:55;;;;;;;26.90;15.03;;;6.40;99.90;;;;;;4989896;28;20187;-79
2021/11/15 12:22:38;;;;;;;15.70;10.40;;;6.40;99.90;;;;;;4994654;28;20206;-80
2021/11/15 12:25:04;;;;;;;13.17;9.30;;;6.50;99.90;;;;;;4994711;28;20211;-81
2021/11/15 12:27:42;;;;;;;21.77;13.87;;;6.50;99.90;;;;;;4976607;28;20183;-80
2021/11/15 12:30:13;;;;;;;24.10;13.67;;;6.50;99.90;;;;;;4974369;28;20191;-83
2021/11/15 12:32:41;;;;;;;35.20;19.80;;;6.50;99.90;;;;;;4984415;28;20264;-80
2021/11/15 12:35:07;;;;;;;12.97;9.97;;;6.50;99.90;;;;;;5002771;28;20266;-81
2021/11/15 12:37:37;;;;;;;11.43;8.17;;;6.90;99.90;;;;;;4990990;28;20185;-80
2021/11/15 12:40:06;;;;;;;41.20;20.53;;;6.50;99.90;;;;;;4977585;28;20663;-80
2021/11/15 12:42:32;;;;;;;22.37;11.80;;;6.50;99.90;;;;;;4999742;28;20178;-80
2021/11/15 12:45:22;;;;;;;11.67;9.20;;;6.50;99.90;;;;;;4998082;28;20210;-79
2021/11/15 12:47:50;;;;;;;13.27;8.83;;;6.40;99.90;;;;;;4995806;28;20179;-80